Pedro Osorio, Brazil
Current Conditions -  °F | °C
As of 7:00 AM on Friday 31 Oct 2014 (Local Time) from SBPK Reporting Station
Scattered Clouds Scattered Clouds  
Wind Chill: 66°   Ceiling: Unl
Heat Index: 66°   Visibility: 6mi
Dew Point: 66°   Wind: 5mph
Humidity: 100%   Direction: 100°E
Pressure: 29.91"   Gusts: NA
Location:  31.86°S, 52.82°W
Report Text: SBPK 310900Z 10004KT 9999 FEW020 SCT030 19/19 Q1013
Loading
Personal Weather Stations






























Interactive Weather Map
Tropical Storm Tracking
New forecast layout! Learn more

10-Day Weather Forecast

Advertisements
Track Severe Weather on mobile